Stadt Bremen — V2EO5 — position and weather

sailwx.info

Track history (hours):
 
Tides and Currents Weather Stations Pressure Air Temp Water Temp Dewpoint Dewpoint Depression Visibility Wind Speed Wind Dir Waves Ship Positions

Stadt Bremen

Last reported at 2015-Oct-15 09:32 UTC. Time now 2016-Aug-29 14:43 UTC.
Position N 25°28' W 079°39'.
Warning: this ship's position is months out of date.

Length 147 m; draft 7.5 m.

Type: Cargo ship. MMSI: 305495000.

Date/timePositionNaut miles runAvg speedWind from/ knotsBaromVisibWave heightAir tempDewpointWater temp
2015-Oct-15 09:32N 25°28' W 079°39'1111.1
2015-Oct-15 08:34N 25°39' W 079°40'1111.0
2015-Oct-15 07:33N 25°50' W 079°41'1110.8
2015-Oct-15 06:34N 25°58' W 079°49'1212.5
2015-Oct-15 05:33N 26°04' W 080°02'5 4.5
2015-Oct-15 04:30N 26°04' W 080°07'0 0.0
2015-Oct-15 03:27N 26°04' W 080°07'0 0.0
2015-Oct-15 02:33N 26°04' W 080°07'0 0.0
2015-Oct-15 01:33N 26°04' W 080°07'0 0.0
2015-Oct-15 01:09N 26°04' W 080°07'0 0.0
2015-Oct-15 00:33N 26°04' W 080°07'0 0.0
2015-Oct-14 23:33N 26°04' W 080°07'0 0.0
2015-Oct-14 22:33N 26°04' W 080°07'0 0.0
2015-Oct-14 21:33N 26°04' W 080°07'1 0.6
2015-Oct-14 20:33N 26°05' W 080°07'8 8.0
2015-Oct-14 19:33N 26°10' W 080°00'1111.2
2015-Oct-14 18:33N 26°20' W 079°55'1111.2
2015-Oct-14 17:33N 26°31' W 079°55'1111.4
2015-Oct-14 16:33N 26°43' W 079°55'25 0.5
2015-Oct-12 17:26N 26°36' W 079°28'2216.7
2015-Oct-12 16:06N 26°14' W 079°27'1016.6
2015-Oct-12 15:29N 26°04' W 079°26'  
Track history (hours):
 
Tides and Currents Weather Stations Pressure Air Temp Water Temp Dewpoint Dewpoint Depression Visibility Wind Speed Wind Dir Waves Ship Positions

Stadt Bremen

Last reported at 2015-Oct-15 09:32 UTC. Time now 2016-Aug-29 14:43 UTC.
Position N 25°28' W 079°39'.
Warning: this ship's position is months out of date.

Length 147 m; draft 7.5 m.

Type: Cargo ship. MMSI: 305495000.

Date/timePositionNaut miles runAvg speedWind from/ knotsBaromVisibWave heightAir tempDewpointWater temp
2015-Oct-15 09:32N 25°28' W 079°39'1111.1
2015-Oct-15 08:34N 25°39' W 079°40'1111.0
2015-Oct-15 07:33N 25°50' W 079°41'1110.8
2015-Oct-15 06:34N 25°58' W 079°49'1212.5
2015-Oct-15 05:33N 26°04' W 080°02'5 4.5
2015-Oct-15 04:30N 26°04' W 080°07'0 0.0
2015-Oct-15 03:27N 26°04' W 080°07'0 0.0
2015-Oct-15 02:33N 26°04' W 080°07'0 0.0
2015-Oct-15 01:33N 26°04' W 080°07'0 0.0
2015-Oct-15 01:09N 26°04' W 080°07'0 0.0
2015-Oct-15 00:33N 26°04' W 080°07'0 0.0
2015-Oct-14 23:33N 26°04' W 080°07'0 0.0
2015-Oct-14 22:33N 26°04' W 080°07'0 0.0
2015-Oct-14 21:33N 26°04' W 080°07'1 0.6
2015-Oct-14 20:33N 26°05' W 080°07'8 8.0
2015-Oct-14 19:33N 26°10' W 080°00'1111.2
2015-Oct-14 18:33N 26°20' W 079°55'1111.2
2015-Oct-14 17:33N 26°31' W 079°55'1111.4
2015-Oct-14 16:33N 26°43' W 079°55'25 0.5
2015-Oct-12 17:26N 26°36' W 079°28'2216.7
2015-Oct-12 16:06N 26°14' W 079°27'1016.6
2015-Oct-12 15:29N 26°04' W 079°26'  

Dump ship's entire track history